Llwyngwril, United Kingdom
Current Conditions -  °F | °C
As of 12:50 AM on Tuesday 25 Nov 2014 (Local Time) from EGOV Reporting Station
Broken Clouds Broken Clouds  
Wind Chill: 50°   Ceiling: 4500
Heat Index: 50°   Visibility: 6mi
Dew Point: 43°   Wind: 8mph
Humidity: 76%   Direction: 240°WSW
Pressure: 30.27"   Gusts: NA
Location:  52.67°N, 4.08°W
Report Text: EGOV 250050Z AUTO 24007KT 9999 FEW026/// BKN045/// BKN140/// 10/06 Q1025
Loading
Personal Weather Stations






























Interactive Weather Map New forecast layout! Learn more

10-Day Weather Forecast

Advertisements
Track Severe Weather on mobile